Time;durP1;ratioP1;P1;durP2;ratioP2;P2;SDS_P1;SDS_P2;PMS_P1;PMS_P2;Temp;Humidity;BMP_temperature;BMP_pressure;BME280_temperature;BME280_humidity;BME280_pressure;Samples;Min_cycle;Max_cycle;Signal;HPM_P1;HPM_P2
2023/01/06 00:00:37;;;;;;;13.32;3.60;;;;;;;;;;5095479;28;20063;-86
2023/01/06 00:03:05;;;;;;;9.05;2.63;;;;;;;;;;5095503;28;20051;-86
2023/01/06 00:05:32;;;;;;;11.80;3.17;;;;;;;;;;5096499;28;20055;-87
2023/01/06 00:07:59;;;;;;;4.85;2.15;;;;;;;;;;5095391;28;20060;-87
2023/01/06 00:10:27;;;;;;;11.10;2.50;;;;;;;;;;5095659;28;20130;-87
2023/01/06 00:12:54;;;;;;;6.75;2.72;;;;;;;;;;5096185;28;20048;-86
2023/01/06 00:15:21;;;;;;;4.85;2.05;;;;;;;;;;5094844;28;20058;-86
2023/01/06 00:17:48;;;;;;;4.93;1.20;;;;;;;;;;5096094;28;20480;-87
2023/01/06 00:20:16;;;;;;;4.90;1.40;;;;;;;;;;5095065;28;20040;-86
2023/01/06 00:22:43;;;;;;;6.50;1.95;;;;;;;;;;5095125;28;20052;-86
2023/01/06 00:25:10;;;;;;;1.63;1.00;;;;;;;;;;5094464;28;20052;-87
2023/01/06 00:27:38;;;;;;;1.92;0.50;;;;;;;;;;5094372;28;20090;-85
2023/01/06 00:30:06;;;;;;;5.60;1.30;;;;;;;;;;5094794;28;20415;-86
2023/01/06 00:32:34;;;;;;;2.55;0.77;;;;;;;;;;5096068;28;20054;-86
2023/01/06 00:35:01;;;;;;;2.55;1.88;;;;;;;;;;5096024;28;20044;-86
2023/01/06 00:37:29;;;;;;;2.72;0.95;;;;;;;;;;5094556;28;20044;-86
2023/01/06 00:39:56;;;;;;;3.58;0.80;;;;;;;;;;5093407;28;20074;-86
2023/01/06 00:42:23;;;;;;;2.80;0.55;;;;;;;;;;5094736;28;20050;-85
2023/01/06 00:44:51;;;;;;;3.00;0.70;;;;;;;;;;5094550;28;20052;-85
2023/01/06 00:47:18;;;;;;;1.85;0.52;;;;;;;;;;5094729;28;20051;-86
2023/01/06 00:49:46;;;;;;;3.70;1.15;;;;;;;;;;5094843;28;20052;-87
2023/01/06 00:52:14;;;;;;;2.33;0.77;;;;;;;;;;5094482;28;20078;-86
2023/01/06 00:54:42;;;;;;;2.78;0.55;;;;;;;;;;5094745;28;20048;-85
2023/01/06 00:57:09;;;;;;;2.92;0.60;;;;;;;;;;5093823;28;20101;-86
2023/01/06 00:59:36;;;;;;;1.58;0.50;;;;;;;;;;5094241;28;20060;-86
2023/01/06 01:02:04;;;;;;;2.25;0.73;;;;;;;;;;5094798;28;20048;-86
2023/01/06 01:04:31;;;;;;;0.73;0.68;;;;;;;;;;5094295;28;20051;-86
2023/01/06 01:06:59;;;;;;;3.00;0.90;;;;;;;;;;5093890;28;20050;-86
2023/01/06 01:09:28;;;;;;;3.20;0.73;;;;;;;;;;5093584;28;20062;-88
2023/01/06 01:12:08;;;;;;;1.45;0.57;;;;;;;;;;5094169;28;20535;-87
2023/01/06 01:14:36;;;;;;;1.25;0.77;;;;;;;;;;5094206;28;20048;-86
2023/01/06 01:17:03;;;;;;;2.85;0.60;;;;;;;;;;5093605;28;20059;-86
2023/01/06 01:19:30;;;;;;;2.25;0.68;;;;;;;;;;5094122;28;20502;-85
2023/01/06 01:21:58;;;;;;;1.48;0.82;;;;;;;;;;5094227;28;20114;-86
2023/01/06 01:24:25;;;;;;;2.70;0.70;;;;;;;;;;5094045;28;20040;-87
2023/01/06 01:26:52;;;;;;;2.28;0.60;;;;;;;;;;5093839;28;20048;-86
2023/01/06 01:29:19;;;;;;;1.98;0.63;;;;;;;;;;5094277;28;20048;-86
2023/01/06 01:31:47;;;;;;;1.73;1.00;;;;;;;;;;5093958;28;20058;-87
2023/01/06 01:34:15;;;;;;;1.98;0.63;;;;;;;;;;5093782;28;20050;-84
2023/01/06 01:36:43;;;;;;;0.60;0.60;;;;;;;;;;5093788;28;20040;-86
2023/01/06 01:39:11;;;;;;;2.10;0.88;;;;;;;;;;5093699;28;20059;-85
2023/01/06 01:41:38;;;;;;;1.25;0.60;;;;;;;;;;5093368;28;20051;-86
2023/01/06 01:44:24;;;;;;;1.33;0.80;;;;;;;;;;5093551;28;20054;-85
2023/01/06 01:46:52;;;;;;;1.35;0.50;;;;;;;;;;5093806;28;20058;-86
2023/01/06 01:49:21;;;;;;;3.03;0.70;;;;;;;;;;5093257;28;20062;-86
2023/01/06 01:51:51;;;;;;;1.42;0.77;;;;;;;;;;5093125;28;20147;-86
2023/01/06 01:54:20;;;;;;;2.97;0.90;;;;;;;;;;5093529;28;20054;-87
2023/01/06 01:56:51;;;;;;;1.42;0.70;;;;;;;;;;5093425;28;20484;-86
2023/01/06 01:59:21;;;;;;;0.90;0.85;;;;;;;;;;5093335;28;20048;-87
2023/01/06 02:01:48;;;;;;;0.50;0.50;;;;;;;;;;5093308;28;20127;-86
2023/01/06 02:04:17;;;;;;;1.52;1.08;;;;;;;;;;5093149;28;20048;-86
2023/01/06 02:06:49;;;;;;;2.97;0.80;;;;;;;;;;5093121;28;20070;-86
2023/01/06 02:09:34;;;;;;;2.47;0.90;;;;;;;;;;5093353;28;20048;-86
2023/01/06 02:12:01;;;;;;;0.90;0.70;;;;;;;;;;5094266;28;20144;-86
2023/01/06 02:14:28;;;;;;;1.00;0.63;;;;;;;;;;5093049;28;20052;-86
2023/01/06 02:16:55;;;;;;;2.53;1.15;;;;;;;;;;5093558;28;20506;-86
2023/01/06 02:19:22;;;;;;;1.77;0.73;;;;;;;;;;5092893;28;20456;-86
2023/01/06 02:21:56;;;;;;;0.88;0.70;;;;;;;;;;5092912;28;20051;-86
2023/01/06 02:24:42;;;;;;;3.40;1.00;;;;;;;;;;5093039;28;20557;-86
2023/01/06 02:27:32;;;;;;;1.00;1.00;;;;;;;;;;5091619;28;20044;-86
2023/01/06 02:29:59;;;;;;;2.80;1.17;;;;;;;;;;5092926;28;20066;-86
2023/01/06 02:32:36;;;;;;;1.45;1.20;;;;;;;;;;5093031;28;20067;-85
2023/01/06 02:35:13;;;;;;;1.35;0.75;;;;;;;;;;5092814;28;20051;-86
2023/01/06 02:37:57;;;;;;;2.53;1.15;;;;;;;;;;5092387;28;20070;-86
2023/01/06 02:40:32;;;;;;;1.08;0.98;;;;;;;;;;5092746;28;20050;-87
2023/01/06 02:43:15;;;;;;;1.10;1.00;;;;;;;;;;5091667;28;20048;-86
2023/01/06 02:45:42;;;;;;;3.35;1.48;;;;;;;;;;5092799;28;20130;-86
2023/01/06 02:48:11;;;;;;;1.73;1.00;;;;;;;;;;5092379;28;20048;-87
2023/01/06 02:50:41;;;;;;;3.40;1.30;;;;;;;;;;5093743;28;20048;-86
2023/01/06 02:53:24;;;;;;;2.88;1.10;;;;;;;;;;5092195;28;20048;-87
2023/01/06 02:55:52;;;;;;;1.37;1.10;;;;;;;;;;5092581;28;20143;-86
2023/01/06 02:58:26;;;;;;;2.35;1.08;;;;;;;;;;5092253;28;20047;-86
2023/01/06 03:01:13;;;;;;;3.60;1.15;;;;;;;;;;5092633;28;20476;-87
2023/01/06 03:03:42;;;;;;;0.82;0.82;;;;;;;;;;5092562;28;20056;-86
2023/01/06 03:06:11;;;;;;;2.03;1.00;;;;;;;;;;5092911;28;20059;-86
2023/01/06 03:08:39;;;;;;;1.63;1.10;;;;;;;;;;5092580;28;20048;-86
2023/01/06 03:11:06;;;;;;;1.10;0.60;;;;;;;;;;5092586;28;20473;-87
2023/01/06 03:13:49;;;;;;;0.70;0.70;;;;;;;;;;5092583;28;20052;-86
2023/01/06 03:16:17;;;;;;;0.50;0.50;;;;;;;;;;5092317;28;20518;-87
2023/01/06 03:18:44;;;;;;;0.73;0.55;;;;;;;;;;5092238;28;20047;-87
2023/01/06 03:21:15;;;;;;;0.68;0.68;;;;;;;;;;5092305;28;20051;-86
2023/01/06 03:23:42;;;;;;;2.10;0.73;;;;;;;;;;5092330;28;20048;-87
2023/01/06 03:26:10;;;;;;;0.88;0.60;;;;;;;;;;5092575;28;20480;-87
2023/01/06 03:28:37;;;;;;;1.38;0.50;;;;;;;;;;5092219;28;20044;-86
2023/01/06 03:31:04;;;;;;;0.40;0.40;;;;;;;;;;5093074;28;20052;-86
2023/01/06 03:33:37;;;;;;;1.13;0.40;;;;;;;;;;5096317;28;20048;-86
2023/01/06 03:36:08;;;;;;;0.47;0.47;;;;;;;;;;5096136;28;20062;-86
2023/01/06 03:38:56;;;;;;;0.30;0.30;;;;;;;;;;5096089;28;20139;-86
2023/01/06 03:43:10;;;;;;;0.50;0.50;;;;;;;;;;5096177;28;20044;-87
2023/01/06 03:44:17;;;;;;;0.40;0.30;;;;;;;;;;5096946;28;20044;-87
2023/01/06 03:46:50;;;;;;;1.23;0.20;;;;;;;;;;5096122;28;20184;-87
2023/01/06 03:49:27;;;;;;;0.47;0.30;;;;;;;;;;5096133;28;20048;-87
2023/01/06 03:52:27;;;;;;;1.48;0.40;;;;;;;;;;5096211;28;20479;-87
2023/01/06 03:55:02;;;;;;;0.30;0.30;;;;;;;;;;5042179;28;20052;-87
2023/01/06 03:57:37;;;;;;;0.70;0.30;;;;;;;;;;5095717;28;20048;-87
2023/01/06 04:00:14;;;;;;;0.43;0.43;;;;;;;;;;5095893;28;20056;-87
2023/01/06 04:02:41;;;;;;;0.30;0.20;;;;;;;;;;5095882;28;20052;-86
2023/01/06 04:05:11;;;;;;;0.20;0.20;;;;;;;;;;5095558;28;20056;-87
2023/01/06 04:07:39;;;;;;;0.68;0.20;;;;;;;;;;5095638;28;20058;-87
2023/01/06 04:10:06;;;;;;;0.20;0.20;;;;;;;;;;5095455;28;20039;-87
2023/01/06 04:12:39;;;;;;;0.70;0.30;;;;;;;;;;5095677;28;20055;-87
2023/01/06 04:15:07;;;;;;;0.30;0.30;;;;;;;;;;5095459;28;20058;-87
2023/01/06 04:17:34;;;;;;;0.30;0.30;;;;;;;;;;5095313;28;20059;-87
2023/01/06 04:20:01;;;;;;;0.75;0.30;;;;;;;;;;5095592;28;20056;-87
2023/01/06 04:22:29;;;;;;;1.42;0.40;;;;;;;;;;5095292;28;20044;-87
2023/01/06 04:24:56;;;;;;;0.40;0.30;;;;;;;;;;5095413;28;20044;-87
2023/01/06 04:27:23;;;;;;;1.25;0.70;;;;;;;;;;5095271;28;20071;-87
2023/01/06 04:29:50;;;;;;;0.52;0.50;;;;;;;;;;5095278;28;20404;-87
2023/01/06 04:32:17;;;;;;;1.40;0.55;;;;;;;;;;5094842;28;20044;-87
2023/01/06 04:34:45;;;;;;;1.33;0.82;;;;;;;;;;5095123;28;20058;-87
2023/01/06 04:37:12;;;;;;;2.30;0.60;;;;;;;;;;5094973;28;20055;-87
2023/01/06 04:39:39;;;;;;;2.53;0.50;;;;;;;;;;5095208;28;20048;-86
2023/01/06 04:42:06;;;;;;;0.55;0.38;;;;;;;;;;5094133;28;20044;-86
2023/01/06 04:44:36;;;;;;;0.10;0.10;;;;;;;;;;5094622;28;20063;-86
2023/01/06 04:47:03;;;;;;;0.30;0.30;;;;;;;;;;5094983;28;20048;-87
2023/01/06 04:49:31;;;;;;;0.30;0.30;;;;;;;;;;5094941;28;20083;-87
2023/01/06 04:51:58;;;;;;;2.53;2.35;;;;;;;;;;5094914;28;20058;-87
2023/01/06 04:54:25;;;;;;;2.97;2.78;;;;;;;;;;5094763;28;20094;-86
2023/01/06 04:56:52;;;;;;;2.00;1.90;;;;;;;;;;5094602;28;20048;-87
2023/01/06 04:59:20;;;;;;;1.58;0.95;;;;;;;;;;5094193;28;20052;-86
2023/01/06 05:01:47;;;;;;;1.27;1.00;;;;;;;;;;5094663;28;20060;-87
2023/01/06 05:04:16;;;;;;;0.98;0.98;;;;;;;;;;5094649;28;20066;-87
2023/01/06 05:06:43;;;;;;;1.58;1.10;;;;;;;;;;5094643;28;20044;-87
2023/01/06 05:09:11;;;;;;;1.95;0.60;;;;;;;;;;5094576;28;20071;-87
2023/01/06 05:11:38;;;;;;;1.00;1.00;;;;;;;;;;5094465;28;20048;-87
2023/01/06 05:14:05;;;;;;;3.83;1.15;;;;;;;;;;5094314;28;20048;-87
2023/01/06 05:16:33;;;;;;;1.20;1.10;;;;;;;;;;5094023;28;20056;-87
2023/01/06 05:19:01;;;;;;;0.70;0.70;;;;;;;;;;5094000;28;20059;-87
2023/01/06 05:21:28;;;;;;;0.50;0.50;;;;;;;;;;5094538;28;20534;-86
2023/01/06 05:23:59;;;;;;;6.13;1.25;;;;;;;;;;5094389;28;20054;-87
2023/01/06 05:26:27;;;;;;;2.30;1.00;;;;;;;;;;5093946;28;20048;-87
2023/01/06 05:28:54;;;;;;;1.45;0.88;;;;;;;;;;5094032;28;20415;-87
2023/01/06 05:31:22;;;;;;;1.15;1.15;;;;;;;;;;5094145;28;20057;-87
2023/01/06 05:33:49;;;;;;;1.40;1.30;;;;;;;;;;5094258;28;20048;-86
2023/01/06 05:36:17;;;;;;;1.80;1.65;;;;;;;;;;5093934;28;20058;-87
2023/01/06 05:38:45;;;;;;;4.72;1.20;;;;;;;;;;5093815;28;20052;-87
2023/01/06 05:41:12;;;;;;;1.60;0.77;;;;;;;;;;5093921;28;20095;-87
2023/01/06 05:43:39;;;;;;;2.35;0.90;;;;;;;;;;5093852;28;20058;-87
2023/01/06 05:46:07;;;;;;;1.38;0.82;;;;;;;;;;5093844;28;20062;-87
2023/01/06 05:48:35;;;;;;;2.70;0.88;;;;;;;;;;5094002;28;20048;-87
2023/01/06 05:51:06;;;;;;;1.33;1.00;;;;;;;;;;5093798;28;20051;-87
2023/01/06 05:53:34;;;;;;;2.40;0.95;;;;;;;;;;5093225;28;20492;-87
2023/01/06 05:56:05;;;;;;;2.35;1.35;;;;;;;;;;5093570;28;20516;-87
2023/01/06 05:58:33;;;;;;;1.35;0.80;;;;;;;;;;5093570;28;20134;-87
2023/01/06 06:01:00;;;;;;;3.30;0.85;;;;;;;;;;5093787;28;20159;-86
2023/01/06 06:03:27;;;;;;;2.22;0.90;;;;;;;;;;5093413;28;20052;-87
2023/01/06 06:05:55;;;;;;;1.27;0.93;;;;;;;;;;5093373;28;20337;-87
2023/01/06 06:08:22;;;;;;;3.03;1.20;;;;;;;;;;5093363;28;20060;-87
2023/01/06 06:10:49;;;;;;;2.97;1.60;;;;;;;;;;5093619;28;20040;-86
2023/01/06 06:13:16;;;;;;;1.83;1.60;;;;;;;;;;5093406;28;20056;-87
2023/01/06 06:15:43;;;;;;;4.57;1.73;;;;;;;;;;5093181;28;20048;-87
2023/01/06 06:18:10;;;;;;;7.45;3.38;;;;;;;;;;5093082;28;20044;-87
2023/01/06 06:20:38;;;;;;;12.00;6.45;;;;;;;;;;5093159;28;20056;-87
2023/01/06 06:23:05;;;;;;;10.20;5.57;;;;;;;;;;5093135;28;20044;-87
2023/01/06 06:25:34;;;;;;;12.45;6.35;;;;;;;;;;5093156;28;20072;-87
2023/01/06 06:28:01;;;;;;;7.75;3.53;;;;;;;;;;5093274;28;20055;-87
2023/01/06 06:30:28;;;;;;;13.27;3.92;;;;;;;;;;5093516;28;20044;-87
2023/01/06 06:32:56;;;;;;;2.80;2.60;;;;;;;;;;5093180;28;20060;-87
2023/01/06 06:35:23;;;;;;;4.68;3.33;;;;;;;;;;5093182;28;20131;-87
2023/01/06 06:37:53;;;;;;;6.38;3.58;;;;;;;;;;5092977;28;20048;-87
2023/01/06 06:40:20;;;;;;;7.30;4.68;;;;;;;;;;5093167;28;20484;-86
2023/01/06 06:42:51;;;;;;;5.82;4.50;;;;;;;;;;5093135;28;20548;-87
2023/01/06 06:45:18;;;;;;;11.50;4.32;;;;;;;;;;5092952;28;20058;-87
2023/01/06 06:47:45;;;;;;;4.25;3.63;;;;;;;;;;5093022;28;20135;-87
2023/01/06 06:50:13;;;;;;;6.38;3.47;;;;;;;;;;5092839;28;20052;-87
2023/01/06 06:52:40;;;;;;;6.68;4.15;;;;;;;;;;5093159;28;20054;-87
2023/01/06 06:55:07;;;;;;;3.97;2.83;;;;;;;;;;5092322;28;20477;-87
2023/01/06 06:57:35;;;;;;;4.88;4.47;;;;;;;;;;5089743;28;20060;-87
2023/01/06 07:00:02;;;;;;;4.30;3.88;;;;;;;;;;5091970;28;20138;-87
2023/01/06 07:02:29;;;;;;;4.75;4.35;;;;;;;;;;5092009;28;20048;-87
2023/01/06 07:04:57;;;;;;;6.90;3.03;;;;;;;;;;5092101;28;20551;-86
2023/01/06 07:07:24;;;;;;;6.85;3.70;;;;;;;;;;5095571;28;20044;-87
2023/01/06 07:09:51;;;;;;;10.52;6.10;;;;;;;;;;5096757;28;20503;-87
2023/01/06 07:12:18;;;;;;;12.05;8.05;;;;;;;;;;5096417;28;20054;-87
2023/01/06 07:14:45;;;;;;;15.00;8.30;;;;;;;;;;5096447;28;20044;-88
2023/01/06 07:17:12;;;;;;;14.73;8.27;;;;;;;;;;5096710;28;20056;-87
2023/01/06 07:19:39;;;;;;;15.07;11.85;;;;;;;;;;5096814;28;20048;-87
2023/01/06 07:22:07;;;;;;;13.13;9.57;;;;;;;;;;5096741;28;20050;-87
2023/01/06 07:24:34;;;;;;;6.75;5.15;;;;;;;;;;5096526;28;20048;-87
2023/01/06 07:27:01;;;;;;;9.68;7.03;;;;;;;;;;5096280;28;20563;-87
2023/01/06 07:29:28;;;;;;;6.50;4.40;;;;;;;;;;5096366;28;20063;-87
2023/01/06 07:31:55;;;;;;;13.93;6.13;;;;;;;;;;5096664;28;20054;-87
2023/01/06 07:34:23;;;;;;;9.65;4.88;;;;;;;;;;5096563;28;20060;-87
2023/01/06 07:36:50;;;;;;;9.48;4.88;;;;;;;;;;5096756;28;20495;-87
2023/01/06 07:39:17;;;;;;;13.57;7.18;;;;;;;;;;5096393;28;20048;-87
2023/01/06 07:41:44;;;;;;;41.55;4.20;;;;;;;;;;5096323;28;20131;-87
2023/01/06 07:44:11;;;;;;;3.42;1.27;;;;;;;;;;5095719;28;20106;-87
2023/01/06 07:46:38;;;;;;;27.63;3.40;;;;;;;;;;5096456;28;20381;-87
2023/01/06 07:49:05;;;;;;;0.57;0.50;;;;;;;;;;5096009;28;20044;-87
2023/01/06 07:51:33;;;;;;;1.52;0.43;;;;;;;;;;5096276;28;20126;-87
2023/01/06 07:54:00;;;;;;;1.27;0.70;;;;;;;;;;5095988;28;20477;-87
2023/01/06 07:56:27;;;;;;;0.73;0.73;;;;;;;;;;5095823;28;20071;-86
2023/01/06 07:58:55;;;;;;;3.30;1.05;;;;;;;;;;5095935;28;20047;-87
2023/01/06 08:01:22;;;;;;;1.48;0.50;;;;;;;;;;5096338;28;20052;-87
2023/01/06 08:03:49;;;;;;;1.27;0.40;;;;;;;;;;5095261;28;20064;-87
2023/01/06 08:06:17;;;;;;;1.70;0.47;;;;;;;;;;5096705;28;20539;-87
2023/01/06 08:08:44;;;;;;;0.70;0.43;;;;;;;;;;5096032;28;20059;-88
2023/01/06 08:11:12;;;;;;;0.30;0.30;;;;;;;;;;5095506;28;20087;-87
2023/01/06 08:13:39;;;;;;;0.70;0.20;;;;;;;;;;5095875;28;20074;-87
2023/01/06 08:16:08;;;;;;;0.10;0.10;;;;;;;;;;5095469;28;20047;-88
2023/01/06 08:18:35;;;;;;;0.30;0.30;;;;;;;;;;5095439;28;20047;-88
2023/01/06 08:21:10;;;;;;;0.68;0.40;;;;;;;;;;5095649;28;20047;-87
2023/01/06 08:23:37;;;;;;;0.20;0.20;;;;;;;;;;5095105;28;20547;-87
2023/01/06 08:26:06;;;;;;;1.95;0.50;;;;;;;;;;5095546;28;20044;-87
2023/01/06 08:28:33;;;;;;;0.38;0.20;;;;;;;;;;5095432;28;20096;-87
2023/01/06 08:31:00;;;;;;;0.20;0.20;;;;;;;;;;5095405;28;20044;-86
2023/01/06 08:33:28;;;;;;;1.25;0.13;;;;;;;;;;5095517;28;20544;-88
2023/01/06 08:35:59;;;;;;;0.10;0.10;;;;;;;;;;5095234;28;20137;-87
2023/01/06 08:38:27;;;;;;;0.43;0.43;;;;;;;;;;5096249;28;20048;-87
2023/01/06 08:40:55;;;;;;;0.20;0.20;;;;;;;;;;5094904;28;20072;-87
2023/01/06 08:43:22;;;;;;;0.10;0.10;;;;;;;;;;5094694;28;20062;-87
2023/01/06 08:45:50;;;;;;;0.22;0.22;;;;;;;;;;5094962;28;20557;-87
2023/01/06 08:48:17;;;;;;;0.15;0.15;;;;;;;;;;5095418;28;20048;-87
2023/01/06 08:50:44;;;;;;;0.73;0.10;;;;;;;;;;5094949;28;20048;-87
2023/01/06 08:53:12;;;;;;;0.00;0.00;;;;;;;;;;5094877;28;20044;-87
2023/01/06 08:55:40;;;;;;;0.10;0.10;;;;;;;;;;5095158;28;20052;-87
2023/01/06 08:58:08;;;;;;;0.20;0.20;;;;;;;;;;5098180;28;20044;-87
2023/01/06 09:00:36;;;;;;;0.40;0.20;;;;;;;;;;5096573;28;20460;-87
2023/01/06 09:03:03;;;;;;;0.30;0.10;;;;;;;;;;5096420;28;20051;-88
2023/01/06 09:05:30;;;;;;;0.10;0.10;;;;;;;;;;5096470;28;20048;-87
2023/01/06 09:07:58;;;;;;;0.10;0.10;;;;;;;;;;5097181;28;20048;-87
2023/01/06 09:10:25;;;;;;;0.20;0.20;;;;;;;;;;5096918;28;20071;-87
2023/01/06 09:12:53;;;;;;;0.22;0.13;;;;;;;;;;5096651;28;20073;-87
2023/01/06 09:15:20;;;;;;;0.43;0.20;;;;;;;;;;5096057;28;20052;-87
2023/01/06 09:17:48;;;;;;;3.00;0.20;;;;;;;;;;5100940;28;20108;-88
2023/01/06 09:20:15;;;;;;;0.00;0.00;;;;;;;;;;5096445;28;20052;-88
2023/01/06 09:22:44;;;;;;;0.00;0.00;;;;;;;;;;5096210;28;20055;-86
2023/01/06 09:25:11;;;;;;;1.17;0.20;;;;;;;;;;5095833;28;20580;-88
2023/01/06 09:27:39;;;;;;;0.17;0.17;;;;;;;;;;5095322;28;20044;-88
2023/01/06 09:30:07;;;;;;;0.63;0.10;;;;;;;;;;5095896;28;20063;-86
2023/01/06 09:32:34;;;;;;;0.80;0.80;;;;;;;;;;5095740;28;20512;-88
2023/01/06 09:35:01;;;;;;;0.35;0.35;;;;;;;;;;5095825;28;20052;-87
2023/01/06 09:37:29;;;;;;;0.70;0.70;;;;;;;;;;5095773;28;20048;-87
2023/01/06 09:39:56;;;;;;;1.38;0.45;;;;;;;;;;5094844;28;20043;-87
2023/01/06 09:42:29;;;;;;;0.70;0.40;;;;;;;;;;5096128;28;20423;-85
2023/01/06 09:45:16;;;;;;;2.70;0.17;;;;;;;;;;5094380;28;20415;-85
2023/01/06 09:47:49;;;;;;;0.45;0.10;;;;;;;;;;5094347;28;20401;-85
2023/01/06 09:50:31;;;;;;;0.80;0.80;;;;;;;;;;5095018;28;20108;-87
2023/01/06 09:53:01;;;;;;;1.17;0.80;;;;;;;;;;5095767;28;20052;-87
2023/01/06 09:55:37;;;;;;;2.80;1.35;;;;;;;;;;5094739;28;20044;-87
2023/01/06 09:58:12;;;;;;;4.03;0.22;;;;;;;;;;5093605;28;20052;-86
2023/01/06 10:00:44;;;;;;;7.30;4.45;;;;;;;;;;5093259;28;20054;-87
2023/01/06 10:03:16;;;;;;;0.70;0.63;;;;;;;;;;5093598;28;20087;-87
2023/01/06 10:05:56;;;;;;;5.47;1.33;;;;;;;;;;5092989;28;20056;-87
2023/01/06 10:08:38;;;;;;;1.75;0.40;;;;;;;;;;5093272;28;20060;-86
2023/01/06 10:11:11;;;;;;;0.13;0.13;;;;;;;;;;5093529;28;20492;-87
2023/01/06 10:13:46;;;;;;;1.05;0.20;;;;;;;;;;5093119;28;20050;-88
2023/01/06 10:16:20;;;;;;;0.20;0.20;;;;;;;;;;5092893;28;20060;-87
2023/01/06 10:19:06;;;;;;;0.38;0.20;;;;;;;;;;5093273;28;20044;-87
2023/01/06 10:21:37;;;;;;;0.10;0.10;;;;;;;;;;5093060;28;20143;-86
2023/01/06 10:24:12;;;;;;;1.25;0.15;;;;;;;;;;5092865;28;20214;-87
2023/01/06 10:26:43;;;;;;;1.52;0.40;;;;;;;;;;5093238;28;20063;-87
2023/01/06 10:29:18;;;;;;;1.35;0.13;;;;;;;;;;5093191;28;20657;-87
2023/01/06 10:31:46;;;;;;;2.42;0.57;;;;;;;;;;5093301;28;20059;-87
2023/01/06 10:34:24;;;;;;;0.70;0.30;;;;;;;;;;5092939;28;20054;-87
2023/01/06 10:36:59;;;;;;;1.45;0.20;;;;;;;;;;5092895;28;20048;-87
2023/01/06 10:39:26;;;;;;;0.40;0.20;;;;;;;;;;5092840;28;20047;-88
2023/01/06 10:42:54;;;;;;;0.20;0.20;;;;;;;;;;5093008;28;20138;-87
2023/01/06 10:44:41;;;;;;;0.40;0.40;;;;;;;;;;5093775;28;20043;-86
2023/01/06 10:47:14;;;;;;;0.32;0.32;;;;;;;;;;5095793;28;20138;-86
2023/01/06 10:49:41;;;;;;;0.57;0.45;;;;;;;;;;5092827;28;20051;-86
2023/01/06 10:52:09;;;;;;;0.40;0.40;;;;;;;;;;5092796;28;20051;-87
2023/01/06 10:54:38;;;;;;;0.70;0.52;;;;;;;;;;5092495;28;20044;-87
2023/01/06 10:57:11;;;;;;;0.82;0.20;;;;;;;;;;5092479;28;20051;-86
2023/01/06 10:59:57;;;;;;;1.13;0.33;;;;;;;;;;5093736;28;20503;-87
2023/01/06 11:02:24;;;;;;;0.30;0.30;;;;;;;;;;5092667;28;20060;-87
2023/01/06 11:04:51;;;;;;;0.95;0.38;;;;;;;;;;5092743;28;20454;-87
2023/01/06 11:07:18;;;;;;;0.43;0.10;;;;;;;;;;5092368;28;20048;-87
2023/01/06 11:09:46;;;;;;;0.68;0.40;;;;;;;;;;5092639;28;20093;-87
2023/01/06 11:12:19;;;;;;;0.43;0.43;;;;;;;;;;5092639;28;20134;-87
2023/01/06 11:14:57;;;;;;;0.65;0.40;;;;;;;;;;5092313;28;20059;-88
2023/01/06 11:17:25;;;;;;;0.10;0.10;;;;;;;;;;5092507;28;20468;-87
2023/01/06 11:20:24;;;;;;;0.45;0.25;;;;;;;;;;5092272;28;20142;-87
2023/01/06 11:22:52;;;;;;;0.15;0.15;;;;;;;;;;5092615;28;20052;-87
2023/01/06 11:25:19;;;;;;;2.70;0.98;;;;;;;;;;5092410;28;20143;-86
2023/01/06 11:28:06;;;;;;;0.20;0.20;;;;;;;;;;5092483;28;20052;-87
2023/01/06 11:30:37;;;;;;;4.05;0.40;;;;;;;;;;5076032;28;20114;-87
2023/01/06 11:33:05;;;;;;;0.52;0.28;;;;;;;;;;5092602;28;20056;-87
2023/01/06 11:35:33;;;;;;;1.95;0.30;;;;;;;;;;5092373;28;20055;-87
2023/01/06 11:38:00;;;;;;;0.65;0.30;;;;;;;;;;5092660;28;20051;-87
2023/01/06 11:40:32;;;;;;;2.08;0.20;;;;;;;;;;5092044;28;20054;-87
2023/01/06 11:43:02;;;;;;;0.25;0.25;;;;;;;;;;5092350;28;20055;-87
2023/01/06 11:45:39;;;;;;;0.93;0.25;;;;;;;;;;5092158;28;20052;-87
2023/01/06 11:48:11;;;;;;;1.77;0.30;;;;;;;;;;5091828;28;20411;-87
2023/01/06 11:50:39;;;;;;;1.02;0.43;;;;;;;;;;5092305;28;20048;-87
2023/01/06 11:53:16;;;;;;;4.85;1.63;;;;;;;;;;5094856;28;20047;-87
2023/01/06 11:56:03;;;;;;;1.20;1.10;;;;;;;;;;5095933;28;20058;-87
2023/01/06 11:58:40;;;;;;;1.70;0.90;;;;;;;;;;5096016;28;20130;-88
2023/01/06 12:01:11;;;;;;;0.57;0.40;;;;;;;;;;5095670;28;20105;-88
2023/01/06 12:03:41;;;;;;;0.70;0.30;;;;;;;;;;5095958;28;20051;-87
2023/01/06 12:06:20;;;;;;;0.20;0.20;;;;;;;;;;5095601;28;20480;-87
2023/01/06 12:08:56;;;;;;;0.30;0.10;;;;;;;;;;5095349;28;20068;-87
2023/01/06 12:11:32;;;;;;;3.60;0.35;;;;;;;;;;5095548;28;20044;-87
2023/01/06 12:14:00;;;;;;;1.48;0.90;;;;;;;;;;5095733;28;20075;-88
2023/01/06 12:16:51;;;;;;;1.85;0.30;;;;;;;;;;5095323;28;20052;-87
2023/01/06 12:19:30;;;;;;;3.67;1.10;;;;;;;;;;5095487;28;20044;-87
2023/01/06 12:21:58;;;;;;;1.88;0.40;;;;;;;;;;5095387;28;20087;-88
2023/01/06 12:24:26;;;;;;;1.77;1.42;;;;;;;;;;5095228;28;20044;-87
2023/01/06 12:26:54;;;;;;;1.75;1.10;;;;;;;;;;5095174;28;20055;-87
2023/01/06 12:29:25;;;;;;;1.08;0.90;;;;;;;;;;5095279;28;20480;-86
2023/01/06 12:32:00;;;;;;;1.75;0.43;;;;;;;;;;5094838;28;20135;-87
2023/01/06 12:34:38;;;;;;;0.45;0.40;;;;;;;;;;5096194;28;20555;-88
2023/01/06 12:37:12;;;;;;;0.40;0.40;;;;;;;;;;5096129;28;20058;-87
2023/01/06 12:39:44;;;;;;;0.75;0.50;;;;;;;;;;5095054;28;20048;-87
2023/01/06 12:42:30;;;;;;;2.08;0.20;;;;;;;;;;5095202;28;20078;-86
2023/01/06 12:45:02;;;;;;;0.68;0.20;;;;;;;;;;5094916;28;20059;-87
2023/01/06 12:47:33;;;;;;;1.63;0.35;;;;;;;;;;5094877;28;20052;-86
2023/01/06 12:50:19;;;;;;;0.50;0.50;;;;;;;;;;5095079;28;20418;-88
2023/01/06 12:52:52;;;;;;;0.10;0.10;;;;;;;;;;5094856;28;20381;-87
2023/01/06 12:55:23;;;;;;;0.20;0.15;;;;;;;;;;5095828;28;20040;-87
2023/01/06 12:57:54;;;;;;;0.70;0.20;;;;;;;;;;5094686;28;20052;-87
2023/01/06 13:00:25;;;;;;;1.50;0.30;;;;;;;;;;5094598;28;20419;-87
2023/01/06 13:03:00;;;;;;;0.17;0.15;;;;;;;;;;5094127;28;20044;-86
2023/01/06 13:05:46;;;;;;;0.75;0.25;;;;;;;;;;5094057;28;20075;-87
2023/01/06 13:08:20;;;;;;;0.45;0.30;;;;;;;;;;5094357;28;20051;-87
2023/01/06 13:10:59;;;;;;;3.10;0.55;;;;;;;;;;5094573;28;20048;-87
2023/01/06 13:13:36;;;;;;;0.73;0.28;;;;;;;;;;5094600;28;20047;-87
2023/01/06 13:16:06;;;;;;;0.50;0.30;;;;;;;;;;5093993;28;20129;-88
2023/01/06 13:18:35;;;;;;;0.85;0.20;;;;;;;;;;5094300;28;20386;-86
2023/01/06 13:21:06;;;;;;;0.10;0.10;;;;;;;;;;5093980;28;20512;-87
2023/01/06 13:23:57;;;;;;;0.30;0.30;;;;;;;;;;5094050;28;20502;-87
2023/01/06 13:26:37;;;;;;;0.20;0.20;;;;;;;;;;5093873;28;20048;-88
2023/01/06 13:29:18;;;;;;;1.77;0.20;;;;;;;;;;5077123;28;20052;-87
2023/01/06 13:31:55;;;;;;;0.10;0.10;;;;;;;;;;5094124;28;20048;-87
2023/01/06 13:34:28;;;;;;;0.95;0.40;;;;;;;;;;5094186;28;20048;-86
2023/01/06 13:37:14;;;;;;;0.20;0.10;;;;;;;;;;5094280;28;20143;-87
2023/01/06 13:39:47;;;;;;;0.30;0.30;;;;;;;;;;5093735;28;20131;-87
2023/01/06 13:42:16;;;;;;;0.90;0.32;;;;;;;;;;5093884;28;20058;-88
2023/01/06 13:44:47;;;;;;;1.55;0.30;;;;;;;;;;5093937;28;20048;-87
2023/01/06 13:47:16;;;;;;;1.33;0.40;;;;;;;;;;5093617;28;20052;-87
2023/01/06 13:49:43;;;;;;;0.20;0.20;;;;;;;;;;5093636;28;20134;-86
2023/01/06 13:52:19;;;;;;;2.30;0.30;;;;;;;;;;5093696;28;20052;-87
2023/01/06 13:54:46;;;;;;;4.75;0.77;;;;;;;;;;5093648;28;20044;-86
2023/01/06 13:57:19;;;;;;;0.82;0.10;;;;;;;;;;5093667;28;20075;-87
2023/01/06 13:59:54;;;;;;;1.27;0.63;;;;;;;;;;5093520;28;20502;-87
2023/01/06 14:02:33;;;;;;;2.22;0.20;;;;;;;;;;5093464;28;20044;-88
2023/01/06 14:05:01;;;;;;;3.65;0.43;;;;;;;;;;5093323;28;20055;-87
2023/01/06 14:07:39;;;;;;;2.22;0.30;;;;;;;;;;5093430;28;20127;-87
2023/01/06 14:10:26;;;;;;;1.35;0.30;;;;;;;;;;5093280;28;20048;-87
2023/01/06 14:12:54;;;;;;;1.63;0.20;;;;;;;;;;5093438;28;20411;-86
2023/01/06 14:15:25;;;;;;;2.65;0.55;;;;;;;;;;5093038;28;20403;-87
2023/01/06 14:17:53;;;;;;;0.30;0.25;;;;;;;;;;5093552;28;20502;-86
2023/01/06 14:20:26;;;;;;;0.20;0.20;;;;;;;;;;5092792;28;20514;-87
2023/01/06 14:23:17;;;;;;;0.85;0.30;;;;;;;;;;5093002;28;20071;-86
2023/01/06 14:25:49;;;;;;;0.55;0.22;;;;;;;;;;5047274;28;20074;-87
2023/01/06 14:28:19;;;;;;;0.30;0.30;;;;;;;;;;5092970;28;20051;-86
2023/01/06 14:30:47;;;;;;;1.85;0.70;;;;;;;;;;5093102;28;20488;-87
2023/01/06 14:33:35;;;;;;;0.20;0.20;;;;;;;;;;5092878;28;20074;-87
2023/01/06 14:36:13;;;;;;;0.30;0.20;;;;;;;;;;5092720;28;20484;-86
2023/01/06 14:38:46;;;;;;;0.65;0.40;;;;;;;;;;5092963;28;20063;-87
2023/01/06 14:41:20;;;;;;;0.30;0.25;;;;;;;;;;5092677;28;20058;-87
2023/01/06 14:43:47;;;;;;;3.28;0.30;;;;;;;;;;5092842;28;20135;-87
2023/01/06 14:46:16;;;;;;;0.80;0.20;;;;;;;;;;5092664;28;20043;-87
2023/01/06 14:48:45;;;;;;;2.25;0.20;;;;;;;;;;5092870;28;20447;-87
2023/01/06 14:51:15;;;;;;;0.40;0.30;;;;;;;;;;5092618;28;20060;-87
2023/01/06 14:53:45;;;;;;;1.45;0.30;;;;;;;;;;5092819;28;20385;-87
2023/01/06 14:56:21;;;;;;;0.63;0.30;;;;;;;;;;5092664;28;20058;-87
2023/01/06 14:58:48;;;;;;;0.47;0.47;;;;;;;;;;5092614;28;20058;-87
2023/01/06 15:01:25;;;;;;;0.40;0.30;;;;;;;;;;5092294;28;20514;-87
2023/01/06 15:03:54;;;;;;;1.95;0.60;;;;;;;;;;5092788;28;20044;-87